sensor_id;sensor_type;location;lat;lon;timestamp;pressure;altitude;pressure_sealevel;temperature
64947;BMP280;51469;52.150;4.682;2022-10-31T00:00:40;102262.78;;;18.73
64947;BMP280;51469;52.150;4.682;2022-10-31T00:03:05;102261.16;;;18.72
64947;BMP280;51469;52.150;4.682;2022-10-31T00:05:31;102257.22;;;18.66
64947;BMP280;51469;52.150;4.682;2022-10-31T00:07:56;102268.34;;;18.66
64947;BMP280;51469;52.150;4.682;2022-10-31T00:10:21;102261.19;;;18.65
64947;BMP280;51469;52.150;4.682;2022-10-31T00:12:47;102265.16;;;18.64
64947;BMP280;51469;52.150;4.682;2022-10-31T00:15:12;102269.13;;;18.63
64947;BMP280;51469;52.150;4.682;2022-10-31T00:17:37;102265.53;;;18.62
64947;BMP280;51469;52.150;4.682;2022-10-31T00:20:03;102277.09;;;18.61
64947;BMP280;51469;52.150;4.682;2022-10-31T00:22:28;102273.50;;;18.57
64947;BMP280;51469;52.150;4.682;2022-10-31T00:24:54;102279.84;;;18.54
64947;BMP280;51469;52.150;4.682;2022-10-31T00:27:19;102275.91;;;18.55
64947;BMP280;51469;52.150;4.682;2022-10-31T00:29:44;102277.06;;;18.54
64947;BMP280;51469;52.150;4.682;2022-10-31T00:32:10;102284.25;;;18.55
64947;BMP280;51469;52.150;4.682;2022-10-31T00:34:35;102281.47;;;18.55
64947;BMP280;51469;52.150;4.682;2022-10-31T00:37:00;102277.06;;;18.54
64947;BMP280;51469;52.150;4.682;2022-10-31T00:39:26;102277.06;;;18.54
64947;BMP280;51469;52.150;4.682;2022-10-31T00:41:51;102276.28;;;18.57
64947;BMP280;51469;52.150;4.682;2022-10-31T00:44:16;102276.28;;;18.57
64947;BMP280;51469;52.150;4.682;2022-10-31T00:46:41;102285.81;;;18.56
64947;BMP280;51469;52.150;4.682;2022-10-31T00:49:07;102279.47;;;18.52
64947;BMP280;51469;52.150;4.682;2022-10-31T00:51:32;102281.03;;;18.49
64947;BMP280;51469;52.150;4.682;2022-10-31T00:53:57;102281.06;;;18.46
64947;BMP280;51469;52.150;4.682;2022-10-31T00:56:23;102287.41;;;18.43
64947;BMP280;51469;52.150;4.682;2022-10-31T00:58:48;102290.59;;;18.38
64947;BMP280;51469;52.150;4.682;2022-10-31T01:01:13;102292.56;;;18.34
64947;BMP280;51469;52.150;4.682;2022-10-31T01:03:39;102287.41;;;18.29
64947;BMP280;51469;52.150;4.682;2022-10-31T01:06:10;102288.97;;;18.23
64947;BMP280;51469;52.150;4.682;2022-10-31T01:08:36;102289.38;;;18.18
64947;BMP280;51469;52.150;4.682;2022-10-31T01:11:11;102283.00;;;18.14
64947;BMP280;51469;52.150;4.682;2022-10-31T01:13:37;102278.66;;;18.09
64947;BMP280;51469;52.150;4.682;2022-10-31T01:16:05;102265.16;;;18.08
64947;BMP280;51469;52.150;4.682;2022-10-31T01:18:30;102258.41;;;18.09
64947;BMP280;51469;52.150;4.682;2022-10-31T01:23:28;102269.91;;;17.97
64947;BMP280;51469;52.150;4.682;2022-10-31T01:26:01;102271.06;;;17.85
64947;BMP280;51469;52.150;4.682;2022-10-31T01:28:26;102273.81;;;17.75
64947;BMP280;51469;52.150;4.682;2022-10-31T01:30:51;102276.19;;;17.66
64947;BMP280;51469;52.150;4.682;2022-10-31T01:33:17;102280.91;;;17.55
64947;BMP280;51469;52.150;4.682;2022-10-31T01:35:42;102270.53;;;17.45
64947;BMP280;51469;52.150;4.682;2022-10-31T01:38:07;102271.28;;;17.38
64947;BMP280;51469;52.150;4.682;2022-10-31T01:40:33;102263.34;;;17.30
64947;BMP280;51469;52.150;4.682;2022-10-31T01:42:58;102262.91;;;17.21
64947;BMP280;51469;52.150;4.682;2022-10-31T01:45:24;102261.69;;;17.15
64947;BMP280;51469;52.150;4.682;2022-10-31T01:47:49;102260.88;;;17.11
64947;BMP280;51469;52.150;4.682;2022-10-31T01:50:31;102254.47;;;17.07
64947;BMP280;51469;52.150;4.682;2022-10-31T01:52:59;102253.69;;;17.03
64947;BMP280;51469;52.150;4.682;2022-10-31T01:55:30;102255.22;;;16.97
64947;BMP280;51469;52.150;4.682;2022-10-31T01:58:02;102256.78;;;16.91
64947;BMP280;51469;52.150;4.682;2022-10-31T02:00:29;102248.06;;;16.86
64947;BMP280;51469;52.150;4.682;2022-10-31T02:02:55;102253.56;;;16.82
64947;BMP280;51469;52.150;4.682;2022-10-31T02:05:24;102249.16;;;16.77
64947;BMP280;51469;52.150;4.682;2022-10-31T02:08:02;102253.50;;;16.72
64947;BMP280;51469;52.150;4.682;2022-10-31T02:10:30;102243.97;;;16.69
64947;BMP280;51469;52.150;4.682;2022-10-31T02:12:58;102245.13;;;16.68
64947;BMP280;51469;52.150;4.682;2022-10-31T02:15:24;102256.56;;;16.63
64947;BMP280;51469;52.150;4.682;2022-10-31T02:17:50;102249.41;;;16.59
64947;BMP280;51469;52.150;4.682;2022-10-31T02:20:19;102247.03;;;16.57
64947;BMP280;51469;52.150;4.682;2022-10-31T02:27:59;102247.75;;;16.47
64947;BMP280;51469;52.150;4.682;2022-10-31T02:33:30;102248.44;;;16.37
64947;BMP280;51469;52.150;4.682;2022-10-31T02:36:22;102243.69;;;16.34
64947;BMP280;51469;52.150;4.682;2022-10-31T02:41:19;102245.19;;;16.28
64947;BMP280;51469;52.150;4.682;2022-10-31T02:44:09;102248.31;;;16.23
64947;BMP280;51469;52.150;4.682;2022-10-31T02:46:50;102245.91;;;16.22
64947;BMP280;51469;52.150;4.682;2022-10-31T02:49:27;102243.16;;;16.18
64947;BMP280;51469;52.150;4.682;2022-10-31T02:51:54;102246.31;;;16.20
64947;BMP280;51469;52.150;4.682;2022-10-31T02:54:23;102241.97;;;16.19
64947;BMP280;51469;52.150;4.682;2022-10-31T02:56:50;102233.31;;;16.24
64947;BMP280;51469;52.150;4.682;2022-10-31T02:59:17;102238.75;;;16.17
64947;BMP280;51469;52.150;4.682;2022-10-31T03:04:31;102245.00;;;16.07
64947;BMP280;51469;52.150;4.682;2022-10-31T03:07:11;102237.06;;;16.06
64947;BMP280;51469;52.150;4.682;2022-10-31T03:12:30;102239.47;;;16.07
64947;BMP280;51469;52.150;4.682;2022-10-31T03:17:33;102237.00;;;15.99
64947;BMP280;51469;52.150;4.682;2022-10-31T03:20:03;102241.75;;;15.98
64947;BMP280;51469;52.150;4.682;2022-10-31T03:22:32;102248.00;;;15.88
64947;BMP280;51469;52.150;4.682;2022-10-31T03:25:00;102240.84;;;15.87
64947;BMP280;51469;52.150;4.682;2022-10-31T03:27:29;102241.69;;;15.91
64947;BMP280;51469;52.150;4.682;2022-10-31T03:29:57;102245.63;;;15.90
64947;BMP280;51469;52.150;4.682;2022-10-31T03:32:46;102246.38;;;15.87
64947;BMP280;51469;52.150;4.682;2022-10-31T03:35:15;102248.72;;;15.85
64947;BMP280;51469;52.150;4.682;2022-10-31T03:37:42;102255.00;;;15.82
64947;BMP280;51469;52.150;4.682;2022-10-31T03:40:09;102248.66;;;15.78
64947;BMP280;51469;52.150;4.682;2022-10-31T03:42:39;102249.47;;;15.79
64947;BMP280;51469;52.150;4.682;2022-10-31T03:45:12;102248.66;;;15.78
64947;BMP280;51469;52.150;4.682;2022-10-31T03:47:40;102253.31;;;15.74
64947;BMP280;51469;52.150;4.682;2022-10-31T03:50:08;102252.59;;;15.77
64947;BMP280;51469;52.150;4.682;2022-10-31T03:55:09;102246.38;;;15.87
64947;BMP280;51469;52.150;4.682;2022-10-31T03:58:03;102249.50;;;15.86
64947;BMP280;51469;52.150;4.682;2022-10-31T04:00:31;102251.09;;;15.83
64947;BMP280;51469;52.150;4.682;2022-10-31T04:03:07;102249.56;;;15.89
64947;BMP280;51469;52.150;4.682;2022-10-31T04:05:35;102263.00;;;15.91
64947;BMP280;51469;52.150;4.682;2022-10-31T04:08:02;102252.81;;;15.95
64947;BMP280;51469;52.150;4.682;2022-10-31T04:10:29;102252.06;;;16.01
64947;BMP280;51469;52.150;4.682;2022-10-31T04:12:59;102257.59;;;16.01
64947;BMP280;51469;52.150;4.682;2022-10-31T04:15:26;102257.19;;;15.99
64947;BMP280;51469;52.150;4.682;2022-10-31T04:17:54;102261.56;;;16.00
64947;BMP280;51469;52.150;4.682;2022-10-31T04:20:33;102261.56;;;16.04
64947;BMP280;51469;52.150;4.682;2022-10-31T04:22:59;102259.56;;;16.01
64947;BMP280;51469;52.150;4.682;2022-10-31T04:25:24;102251.59;;;15.96
64947;BMP280;51469;52.150;4.682;2022-10-31T04:27:49;102256.69;;;15.90
64947;BMP280;51469;52.150;4.682;2022-10-31T04:30:15;102256.63;;;15.83
64947;BMP280;51469;52.150;4.682;2022-10-31T04:32:40;102257.34;;;15.77
64947;BMP280;51469;52.150;4.682;2022-10-31T04:35:06;102252.50;;;15.70
64947;BMP280;51469;52.150;4.682;2022-10-31T04:37:31;102254.00;;;15.64
64947;BMP280;51469;52.150;4.682;2022-10-31T04:39:57;102252.75;;;15.58
64947;BMP280;51469;52.150;4.682;2022-10-31T04:42:22;102256.72;;;15.57
64947;BMP280;51469;52.150;4.682;2022-10-31T04:44:47;102262.56;;;15.52
64947;BMP280;51469;52.150;4.682;2022-10-31T04:47:13;102260.97;;;15.51
64947;BMP280;51469;52.150;4.682;2022-10-31T04:49:38;102258.69;;;15.57
64947;BMP280;51469;52.150;4.682;2022-10-31T04:52:03;102246.44;;;15.58
64947;BMP280;51469;52.150;4.682;2022-10-31T04:54:29;102240.91;;;15.58
64947;BMP280;51469;52.150;4.682;2022-10-31T04:56:54;102250.84;;;15.62
64947;BMP280;51469;52.150;4.682;2022-10-31T04:59:19;102249.66;;;15.63
64947;BMP280;51469;52.150;4.682;2022-10-31T05:01:45;102246.84;;;15.60
64947;BMP280;51469;52.150;4.682;2022-10-31T05:04:10;102244.44;;;15.58
64947;BMP280;51469;52.150;4.682;2022-10-31T05:06:35;102243.59;;;15.54
64947;BMP280;51469;52.150;4.682;2022-10-31T05:09:01;102251.50;;;15.52
64947;BMP280;51469;52.150;4.682;2022-10-31T05:11:26;102239.91;;;15.43
64947;BMP280;51469;52.150;4.682;2022-10-31T05:13:51;102242.28;;;15.41
64947;BMP280;51469;52.150;4.682;2022-10-31T05:16:17;102237.47;;;15.38
64947;BMP280;51469;52.150;4.682;2022-10-31T05:18:42;102238.59;;;15.30
64947;BMP280;51469;52.150;4.682;2022-10-31T05:21:07;102237.69;;;15.26
64947;BMP280;51469;52.150;4.682;2022-10-31T05:23:33;102242.41;;;15.22
64947;BMP280;51469;52.150;4.682;2022-10-31T05:25:58;102239.97;;;15.17
64947;BMP280;51469;52.150;4.682;2022-10-31T05:28:23;102239.97;;;15.17
64947;BMP280;51469;52.150;4.682;2022-10-31T05:30:49;102237.66;;;15.19
64947;BMP280;51469;52.150;4.682;2022-10-31T05:33:14;102238.47;;;15.23
64947;BMP280;51469;52.150;4.682;2022-10-31T05:35:40;102233.06;;;15.30
64947;BMP280;51469;52.150;4.682;2022-10-31T05:38:05;102237.44;;;15.35
64947;BMP280;51469;52.150;4.682;2022-10-31T05:40:30;102222.84;;;15.34
64947;BMP280;51469;52.150;4.682;2022-10-31T05:42:56;102222.84;;;15.34
64947;BMP280;51469;52.150;4.682;2022-10-31T05:45:24;102198.50;;;15.17
64947;BMP280;51469;52.150;4.682;2022-10-31T05:48:00;102217.19;;;15.27
64947;BMP280;51469;52.150;4.682;2022-10-31T05:50:28;102211.19;;;15.22
64947;BMP280;51469;52.150;4.682;2022-10-31T05:52:55;102221.06;;;15.19
64947;BMP280;51469;52.150;4.682;2022-10-31T05:55:21;102214.25;;;15.13
64947;BMP280;51469;52.150;4.682;2022-10-31T05:57:46;102214.56;;;15.08
64947;BMP280;51469;52.150;4.682;2022-10-31T06:00:12;102220.09;;;15.08
64947;BMP280;51469;52.150;4.682;2022-10-31T06:02:37;102210.63;;;15.09
64947;BMP280;51469;52.150;4.682;2022-10-31T06:05:03;102212.22;;;15.10
64947;BMP280;51469;52.150;4.682;2022-10-31T06:07:35;102207.53;;;15.14
64947;BMP280;51469;52.150;4.682;2022-10-31T06:10:02;102206.81;;;15.17
64947;BMP280;51469;52.150;4.682;2022-10-31T06:12:27;102213.91;;;15.18
64947;BMP280;51469;52.150;4.682;2022-10-31T06:14:53;102212.38;;;15.21
64947;BMP280;51469;52.150;4.682;2022-10-31T06:17:18;102216.34;;;15.23
64947;BMP280;51469;52.150;4.682;2022-10-31T06:19:43;102210.50;;;15.28
64947;BMP280;51469;52.150;4.682;2022-10-31T06:22:09;102209.38;;;15.36
64947;BMP280;51469;52.150;4.682;2022-10-31T06:24:36;102205.44;;;15.34
64947;BMP280;51469;52.150;4.682;2022-10-31T06:27:02;102213.38;;;15.35
64947;BMP280;51469;52.150;4.682;2022-10-31T06:29:27;102219.69;;;15.36
64947;BMP280;51469;52.150;4.682;2022-10-31T06:31:52;102218.91;;;15.35
64947;BMP280;51469;52.150;4.682;2022-10-31T06:34:18;102220.06;;;15.38
64947;BMP280;51469;52.150;4.682;2022-10-31T06:36:45;102220.44;;;15.36
64947;BMP280;51469;52.150;4.682;2022-10-31T06:39:11;102222.06;;;15.37
64947;BMP280;51469;52.150;4.682;2022-10-31T06:41:36;102218.13;;;15.38
64947;BMP280;51469;52.150;4.682;2022-10-31T06:44:02;102222.50;;;15.39
64947;BMP280;51469;52.150;4.682;2022-10-31T06:46:27;102218.22;;;15.45
64947;BMP280;51469;52.150;4.682;2022-10-31T06:48:52;102220.66;;;15.50
64947;BMP280;51469;52.150;4.682;2022-10-31T06:51:18;102212.81;;;15.56
64947;BMP280;51469;52.150;4.682;2022-10-31T06:53:43;102214.78;;;15.55
64947;BMP280;51469;52.150;4.682;2022-10-31T06:56:08;102218.78;;;15.58
64947;BMP280;51469;52.150;4.682;2022-10-31T06:58:34;102215.22;;;15.57
64947;BMP280;51469;52.150;4.682;2022-10-31T07:01:00;102216.00;;;15.58
64947;BMP280;51469;52.150;4.682;2022-10-31T07:03:26;102216.78;;;15.58
64947;BMP280;51469;52.150;4.682;2022-10-31T07:05:51;102227.06;;;15.58
64947;BMP280;51469;52.150;4.682;2022-10-31T07:08:16;102233.72;;;15.53
64947;BMP280;51469;52.150;4.682;2022-10-31T07:10:43;102239.78;;;15.66
64947;BMP280;51469;52.150;4.682;2022-10-31T07:13:12;102235.63;;;15.79
64947;BMP280;51469;52.150;4.682;2022-10-31T07:15:39;102240.88;;;15.91
64947;BMP280;51469;52.150;4.682;2022-10-31T07:18:07;102241.81;;;16.05
64947;BMP280;51469;52.150;4.682;2022-10-31T07:20:33;102238.81;;;16.21
64947;BMP280;51469;52.150;4.682;2022-10-31T07:22:58;102237.78;;;16.36
64947;BMP280;51469;52.150;4.682;2022-10-31T07:25:23;102243.78;;;16.48
64947;BMP280;51469;52.150;4.682;2022-10-31T07:27:49;102224.84;;;16.54
64947;BMP280;51469;52.150;4.682;2022-10-31T07:30:14;102240.81;;;16.74
64947;BMP280;51469;52.150;4.682;2022-10-31T07:32:51;102250.41;;;16.87
64947;BMP280;51469;52.150;4.682;2022-10-31T07:35:23;102244.97;;;17.01
64947;BMP280;51469;52.150;4.682;2022-10-31T07:37:48;102248.59;;;17.16
64947;BMP280;51469;52.150;4.682;2022-10-31T07:40:15;102244.28;;;17.28
64947;BMP280;51469;52.150;4.682;2022-10-31T07:42:43;102240.41;;;17.40
64947;BMP280;51469;52.150;4.682;2022-10-31T07:45:11;102251.50;;;17.47
64947;BMP280;51469;52.150;4.682;2022-10-31T07:47:44;102251.50;;;17.50
64947;BMP280;51469;52.150;4.682;2022-10-31T07:50:12;102245.19;;;17.50
64947;BMP280;51469;52.150;4.682;2022-10-31T07:52:38;102246.38;;;17.49
64947;BMP280;51469;52.150;4.682;2022-10-31T07:55:04;102248.78;;;17.54
64947;BMP280;51469;52.150;4.682;2022-10-31T07:57:30;102257.13;;;17.58
64947;BMP280;51469;52.150;4.682;2022-10-31T07:59:55;102249.56;;;17.58
64947;BMP280;51469;52.150;4.682;2022-10-31T08:02:21;102246.78;;;17.58
64947;BMP280;51469;52.150;4.682;2022-10-31T08:04:47;102248.00;;;17.60
64947;BMP280;51469;52.150;4.682;2022-10-31T08:07:12;102246.84;;;17.72
64947;BMP280;51469;52.150;4.682;2022-10-31T08:09:37;102239.72;;;17.78
64947;BMP280;51469;52.150;4.682;2022-10-31T08:12:03;102232.59;;;17.84
64947;BMP280;51469;52.150;4.682;2022-10-31T08:14:28;102232.63;;;17.88
64947;BMP280;51469;52.150;4.682;2022-10-31T08:16:53;102227.03;;;17.84
64947;BMP280;51469;52.150;4.682;2022-10-31T08:19:19;102242.91;;;17.83
64947;BMP280;51469;52.150;4.682;2022-10-31T08:21:45;102242.09;;;17.83
64947;BMP280;51469;52.150;4.682;2022-10-31T08:24:10;102239.72;;;17.85
64947;BMP280;51469;52.150;4.682;2022-10-31T08:26:36;102242.94;;;17.94
64947;BMP280;51469;52.150;4.682;2022-10-31T08:29:01;102238.16;;;17.98
64947;BMP280;51469;52.150;4.682;2022-10-31T08:31:28;102237.38;;;18.04
64947;BMP280;51469;52.150;4.682;2022-10-31T08:33:53;102235.00;;;18.10
64947;BMP280;51469;52.150;4.682;2022-10-31T08:36:20;102248.50;;;18.18
64947;BMP280;51469;52.150;4.682;2022-10-31T08:38:46;102246.91;;;18.28
64947;BMP280;51469;52.150;4.682;2022-10-31T08:41:12;102242.94;;;18.36
64947;BMP280;51469;52.150;4.682;2022-10-31T08:43:37;102240.97;;;18.40
64947;BMP280;51469;52.150;4.682;2022-10-31T08:46:03;102233.41;;;18.37
64947;BMP280;51469;52.150;4.682;2022-10-31T08:48:28;102242.94;;;18.43
64947;BMP280;51469;52.150;4.682;2022-10-31T08:50:56;102236.59;;;18.53
64947;BMP280;51469;52.150;4.682;2022-10-31T08:53:23;102219.50;;;18.54
64947;BMP280;51469;52.150;4.682;2022-10-31T08:55:48;102213.53;;;18.63
64947;BMP280;51469;52.150;4.682;2022-10-31T08:58:18;102208.75;;;18.70
64947;BMP280;51469;52.150;4.682;2022-10-31T09:03:22;102210.28;;;18.82
64947;BMP280;51469;52.150;4.682;2022-10-31T09:05:47;102215.84;;;18.92
64947;BMP280;51469;52.150;4.682;2022-10-31T09:08:13;102219.00;;;18.98
64947;BMP280;51469;52.150;4.682;2022-10-31T09:10:39;102216.56;;;19.10
64947;BMP280;51469;52.150;4.682;2022-10-31T09:13:08;102205.34;;;19.21
64947;BMP280;51469;52.150;4.682;2022-10-31T09:15:36;102212.91;;;19.27
64947;BMP280;51469;52.150;4.682;2022-10-31T09:18:04;102202.94;;;19.30
64947;BMP280;51469;52.150;4.682;2022-10-31T09:20:31;102198.94;;;19.34
64947;BMP280;51469;52.150;4.682;2022-10-31T09:22:58;102192.91;;;19.43
64947;BMP280;51469;52.150;4.682;2022-10-31T09:25:24;102185.72;;;19.49
64947;BMP280;51469;52.150;4.682;2022-10-31T09:27:49;102181.28;;;19.62
64947;BMP280;51469;52.150;4.682;2022-10-31T09:30:14;102180.34;;;19.79
64947;BMP280;51469;52.150;4.682;2022-10-31T09:32:40;102169.53;;;19.88
64947;BMP280;51469;52.150;4.682;2022-10-31T09:35:05;102166.75;;;19.88
64947;BMP280;51469;52.150;4.682;2022-10-31T09:37:31;102169.13;;;19.89
64947;BMP280;51469;52.150;4.682;2022-10-31T09:39:57;102173.84;;;19.96
64947;BMP280;51469;52.150;4.682;2022-10-31T09:45:43;102155.41;;;20.05
64947;BMP280;51469;52.150;4.682;2022-10-31T09:50:19;102150.66;;;20.06
64947;BMP280;51469;52.150;4.682;2022-10-31T09:52:58;102159.00;;;20.06
64947;BMP280;51469;52.150;4.682;2022-10-31T09:55:34;102157.25;;;20.22
64947;BMP280;51469;52.150;4.682;2022-10-31T09:58:01;102159.94;;;20.33
64947;BMP280;51469;52.150;4.682;2022-10-31T10:00:27;102150.31;;;20.41
64947;BMP280;51469;52.150;4.682;2022-10-31T10:05:26;102156.25;;;20.76
64947;BMP280;51469;52.150;4.682;2022-10-31T10:10:40;102156.81;;;20.94
64947;BMP280;51469;52.150;4.682;2022-10-31T10:22:05;102138.13;;;21.18
64947;BMP280;51469;52.150;4.682;2022-10-31T10:24:53;102130.19;;;21.16
64947;BMP280;51469;52.150;4.682;2022-10-31T10:27:39;102131.81;;;21.14
64947;BMP280;51469;52.150;4.682;2022-10-31T10:30:14;102119.16;;;21.06
64947;BMP280;51469;52.150;4.682;2022-10-31T10:32:44;102120.84;;;21.00
64947;BMP280;51469;52.150;4.682;2022-10-31T10:35:22;102106.53;;;20.98
64947;BMP280;51469;52.150;4.682;2022-10-31T10:37:51;102101.31;;;21.00
64947;BMP280;51469;52.150;4.682;2022-10-31T10:40:24;102099.38;;;20.97
64947;BMP280;51469;52.150;4.682;2022-10-31T10:45:40;102087.75;;;21.02
64947;BMP280;51469;52.150;4.682;2022-10-31T10:48:36;102089.47;;;21.19
64947;BMP280;51469;52.150;4.682;2022-10-31T10:51:06;102071.38;;;21.27
64947;BMP280;51469;52.150;4.682;2022-10-31T10:59:13;102060.09;;;21.57
64947;BMP280;51469;52.150;4.682;2022-10-31T11:01:41;102057.19;;;21.41
64947;BMP280;51469;52.150;4.682;2022-10-31T11:04:30;102053.06;;;21.49
64947;BMP280;51469;52.150;4.682;2022-10-31T11:07:05;102057.63;;;21.62
64947;BMP280;51469;52.150;4.682;2022-10-31T11:09:32;102060.06;;;21.80
64947;BMP280;51469;52.150;4.682;2022-10-31T11:11:58;102055.22;;;21.84
64947;BMP280;51469;52.150;4.682;2022-10-31T11:14:24;102054.56;;;21.96
64947;BMP280;51469;52.150;4.682;2022-10-31T11:17:09;102050.84;;;22.22
64947;BMP280;51469;52.150;4.682;2022-10-31T11:19:36;102040.84;;;22.40
64947;BMP280;51469;52.150;4.682;2022-10-31T11:22:14;102044.13;;;22.55
64947;BMP280;51469;52.150;4.682;2022-10-31T11:24:41;102043.38;;;22.70
64947;BMP280;51469;52.150;4.682;2022-10-31T11:27:21;102049.84;;;22.83
64947;BMP280;51469;52.150;4.682;2022-10-31T11:29:47;102043.47;;;22.98
64947;BMP280;51469;52.150;4.682;2022-10-31T11:32:21;102039.88;;;23.14
64947;BMP280;51469;52.150;4.682;2022-10-31T11:34:49;102038.53;;;23.34
64947;BMP280;51469;52.150;4.682;2022-10-31T11:37:28;102027.47;;;23.59
64947;BMP280;51469;52.150;4.682;2022-10-31T11:39:59;102018.44;;;23.68
64947;BMP280;51469;52.150;4.682;2022-10-31T11:42:35;102015.09;;;23.44
64947;BMP280;51469;52.150;4.682;2022-10-31T11:45:06;102019.63;;;23.54
64947;BMP280;51469;52.150;4.682;2022-10-31T11:47:33;102013.31;;;23.50
64947;BMP280;51469;52.150;4.682;2022-10-31T11:50:02;102012.91;;;23.36
64947;BMP280;51469;52.150;4.682;2022-10-31T11:52:30;102005.00;;;23.18
64947;BMP280;51469;52.150;4.682;2022-10-31T11:57:42;101995.38;;;22.72
64947;BMP280;51469;52.150;4.682;2022-10-31T12:00:28;101982.84;;;22.60
64947;BMP280;51469;52.150;4.682;2022-10-31T12:08:17;101978.47;;;22.24
64947;BMP280;51469;52.150;4.682;2022-10-31T12:11:01;101969.44;;;22.20
64947;BMP280;51469;52.150;4.682;2022-10-31T12:13:32;101970.09;;;22.24
64947;BMP280;51469;52.150;4.682;2022-10-31T12:16:14;101970.97;;;22.21
64947;BMP280;51469;52.150;4.682;2022-10-31T12:24:09;101936.78;;;22.81
64947;BMP280;51469;52.150;4.682;2022-10-31T12:26:45;101927.88;;;22.86
64947;BMP280;51469;52.150;4.682;2022-10-31T12:32:13;101921.38;;;22.73
64947;BMP280;51469;52.150;4.682;2022-10-31T12:35:14;101915.06;;;22.84
64947;BMP280;51469;52.150;4.682;2022-10-31T12:37:44;101905.28;;;22.92
64947;BMP280;51469;52.150;4.682;2022-10-31T12:43:02;101887.75;;;23.04
64947;BMP280;51469;52.150;4.682;2022-10-31T12:50:51;101863.44;;;23.01
64947;BMP280;51469;52.150;4.682;2022-10-31T12:58:36;101838.31;;;22.86
64947;BMP280;51469;52.150;4.682;2022-10-31T13:01:17;101834.44;;;22.79
64947;BMP280;51469;52.150;4.682;2022-10-31T13:04:05;101824.22;;;22.73
64947;BMP280;51469;52.150;4.682;2022-10-31T13:06:36;101828.72;;;22.71
64947;BMP280;51469;52.150;4.682;2022-10-31T13:09:07;101818.44;;;22.80
64947;BMP280;51469;52.150;4.682;2022-10-31T13:11:39;101818.72;;;22.86
64947;BMP280;51469;52.150;4.682;2022-10-31T13:14:29;101812.13;;;22.92
64947;BMP280;51469;52.150;4.682;2022-10-31T13:16:56;101820.19;;;23.02
64947;BMP280;51469;52.150;4.682;2022-10-31T13:24:36;101784.44;;;23.22
64947;BMP280;51469;52.150;4.682;2022-10-31T13:27:26;101786.00;;;23.23
64947;BMP280;51469;52.150;4.682;2022-10-31T13:30:12;101791.41;;;23.30
64947;BMP280;51469;52.150;4.682;2022-10-31T13:33:01;101774.38;;;23.25
64947;BMP280;51469;52.150;4.682;2022-10-31T13:38:09;101780.41;;;23.23
64947;BMP280;51469;52.150;4.682;2022-10-31T13:43:28;101760.69;;;23.14
64947;BMP280;51469;52.150;4.682;2022-10-31T13:45:55;101756.69;;;23.15
64947;BMP280;51469;52.150;4.682;2022-10-31T13:51:00;101749.34;;;23.05
64947;BMP280;51469;52.150;4.682;2022-10-31T13:53:58;101738.47;;;23.07
64947;BMP280;51469;52.150;4.682;2022-10-31T13:56:33;101735.22;;;23.09
64947;BMP280;51469;52.150;4.682;2022-10-31T13:59:15;101737.81;;;23.03
64947;BMP280;51469;52.150;4.682;2022-10-31T14:01:47;101726.63;;;23.03
64947;BMP280;51469;52.150;4.682;2022-10-31T14:04:17;101732.88;;;23.07
64947;BMP280;51469;52.150;4.682;2022-10-31T14:06:51;101726.97;;;23.05
64947;BMP280;51469;52.150;4.682;2022-10-31T14:09:39;101716.44;;;22.97
64947;BMP280;51469;52.150;4.682;2022-10-31T14:12:13;101722.22;;;22.90
64947;BMP280;51469;52.150;4.682;2022-10-31T14:14:47;101718.31;;;22.88
64947;BMP280;51469;52.150;4.682;2022-10-31T14:17:25;101710.69;;;22.88
64947;BMP280;51469;52.150;4.682;2022-10-31T14:22:38;101689.41;;;22.90
64947;BMP280;51469;52.150;4.682;2022-10-31T14:27:54;101676.00;;;22.86
64947;BMP280;51469;52.150;4.682;2022-10-31T14:30:23;101670.19;;;22.92
64947;BMP280;51469;52.150;4.682;2022-10-31T14:33:11;101659.66;;;22.96
64947;BMP280;51469;52.150;4.682;2022-10-31T14:36:11;101656.72;;;22.88
64947;BMP280;51469;52.150;4.682;2022-10-31T14:38:54;101658.84;;;22.83
64947;BMP280;51469;52.150;4.682;2022-10-31T14:44:16;101651.56;;;22.74
64947;BMP280;51469;52.150;4.682;2022-10-31T14:51:53;101637.22;;;22.72
64947;BMP280;51469;52.150;4.682;2022-10-31T14:54:29;101629.28;;;22.70
64947;BMP280;51469;52.150;4.682;2022-10-31T14:57:02;101621.31;;;22.69
64947;BMP280;51469;52.150;4.682;2022-10-31T14:59:31;101617.19;;;22.73
64947;BMP280;51469;52.150;4.682;2022-10-31T15:02:00;101608.34;;;22.75
64947;BMP280;51469;52.150;4.682;2022-10-31T15:04:28;101601.72;;;22.69
64947;BMP280;51469;52.150;4.682;2022-10-31T15:07:04;101603.00;;;22.68
64947;BMP280;51469;52.150;4.682;2022-10-31T15:09:33;101599.13;;;22.62
64947;BMP280;51469;52.150;4.682;2022-10-31T15:11:59;101584.84;;;22.60
64947;BMP280;51469;52.150;4.682;2022-10-31T15:14:32;101583.47;;;22.52
64947;BMP280;51469;52.150;4.682;2022-10-31T15:16:59;101582.47;;;22.46
64947;BMP280;51469;52.150;4.682;2022-10-31T15:19:28;101583.34;;;22.43
64947;BMP280;51469;52.150;4.682;2022-10-31T15:21:56;101578.31;;;22.38
64947;BMP280;51469;52.150;4.682;2022-10-31T15:24:26;101574.47;;;22.32
64947;BMP280;51469;52.150;4.682;2022-10-31T15:26:54;101568.19;;;22.28
64947;BMP280;51469;52.150;4.682;2022-10-31T15:29:25;101565.97;;;22.23
64947;BMP280;51469;52.150;4.682;2022-10-31T15:31:54;101556.31;;;22.24
64947;BMP280;51469;52.150;4.682;2022-10-31T15:34:32;101558.91;;;22.18
64947;BMP280;51469;52.150;4.682;2022-10-31T15:37:00;101554.97;;;22.16
64947;BMP280;51469;52.150;4.682;2022-10-31T15:39:25;101561.09;;;22.11
64947;BMP280;51469;52.150;4.682;2022-10-31T15:41:53;101544.00;;;22.09
64947;BMP280;51469;52.150;4.682;2022-10-31T15:44:20;101542.44;;;22.08
64947;BMP280;51469;52.150;4.682;2022-10-31T15:47:19;101534.84;;;22.08
64947;BMP280;51469;52.150;4.682;2022-10-31T15:49:55;101533.00;;;22.02
64947;BMP280;51469;52.150;4.682;2022-10-31T15:52:31;101536.38;;;21.97
64947;BMP280;51469;52.150;4.682;2022-10-31T15:55:03;101525.19;;;21.97
64947;BMP280;51469;52.150;4.682;2022-10-31T15:57:30;101523.94;;;21.98
64947;BMP280;51469;52.150;4.682;2022-10-31T15:59:55;101524.50;;;21.93